createdAt,value
2018-11-21T00:00:04.364Z,8.88
2018-11-21T00:01:20.015Z,8.88
2018-11-21T00:02:35.772Z,10.45
2018-11-21T00:03:51.307Z,9.83
2018-11-21T00:05:06.939Z,6.33
2018-11-21T00:06:23.261Z,5.45
2018-11-21T00:07:38.977Z,6.75
2018-11-21T00:08:55.920Z,6.58
2018-11-21T00:10:12.708Z,7.00
2018-11-21T00:11:28.920Z,6.40
2018-11-21T00:24:54.329Z,6.42
2018-11-21T00:26:10.230Z,6.33
2018-11-21T00:27:25.991Z,5.03
2018-11-21T00:28:42.366Z,4.40
2018-11-21T00:29:58.692Z,6.60
2018-11-21T00:31:15.040Z,6.30
2018-11-21T00:33:32.688Z,4.25
2018-11-21T00:34:56.159Z,6.60
2018-11-21T00:36:19.201Z,8.10
2018-11-21T00:37:42.269Z,7.00
2018-11-21T00:39:07.148Z,7.65
2018-11-21T00:40:30.282Z,4.47
2018-11-21T00:41:46.245Z,5.50
2018-11-21T00:43:02.262Z,6.42
2018-11-21T00:44:18.639Z,5.58
2018-11-21T00:45:35.071Z,4.75
2018-11-21T00:46:51.415Z,4.87
2018-11-21T00:48:06.896Z,6.42
2018-11-21T00:49:23.297Z,4.50
2018-11-21T00:50:39.412Z,4.15
2018-11-21T00:51:55.310Z,4.28
2018-11-21T00:53:11.637Z,4.67
2018-11-21T00:54:28.416Z,4.70
2018-11-21T00:55:44.402Z,5.90
2018-11-21T00:57:00.993Z,6.97
2018-11-21T00:58:16.751Z,11.20
2018-11-21T00:59:20.605Z,8.88
2018-11-21T01:00:43.702Z,8.50
2018-11-21T01:01:59.355Z,10.72
2018-11-21T01:03:15.313Z,7.33
2018-11-21T01:04:31.375Z,9.30
2018-11-21T01:05:47.532Z,11.83
2018-11-21T01:07:03.825Z,11.75
2018-11-21T01:08:20.063Z,6.83
2018-11-21T01:09:36.284Z,7.45
2018-11-21T01:10:52.332Z,7.53
2018-11-21T01:12:08.535Z,5.97
2018-11-21T01:13:24.463Z,7.12
2018-11-21T01:14:40.752Z,6.10
2018-11-21T01:15:56.617Z,6.60
2018-11-21T01:17:12.284Z,8.68
2018-11-21T01:18:27.965Z,11.33
2018-11-21T01:19:44.070Z,13.48
2018-11-21T01:21:00.094Z,12.82
2018-11-21T01:22:16.382Z,14.90
2018-11-21T01:23:32.601Z,14.05
2018-11-21T01:24:48.611Z,13.55
2018-11-21T01:26:05.084Z,12.28
2018-11-21T01:27:08.870Z,13.25
2018-11-21T01:28:31.924Z,13.10
2018-11-21T01:29:47.747Z,10.28
2018-11-21T01:31:03.958Z,9.65
2018-11-21T01:32:20.111Z,9.35
2018-11-21T01:33:36.256Z,12.15
2018-11-21T01:34:52.508Z,12.55
2018-11-21T01:36:08.761Z,12.95
2018-11-21T01:37:24.876Z,13.55
2018-11-21T01:38:40.765Z,12.25
2018-11-21T01:39:55.442Z,12.60
2018-11-21T01:41:11.438Z,12.15
2018-11-21T01:42:27.568Z,9.65
2018-11-21T01:43:42.986Z,12.37
2018-11-21T01:44:59.231Z,15.72
2018-11-21T01:46:15.486Z,17.98
2018-11-21T01:47:31.824Z,16.32
2018-11-21T01:48:48.249Z,16.57
2018-11-21T01:50:04.503Z,8.95
2018-11-21T01:51:20.664Z,7.30
2018-11-21T01:52:36.140Z,6.97
2018-11-21T01:53:52.111Z,6.40
2018-11-21T01:55:08.498Z,7.37
2018-11-21T01:56:12.307Z,8.35
2018-11-21T01:57:35.431Z,8.68
2018-11-21T01:58:51.687Z,9.15
2018-11-21T02:00:07.226Z,11.55
2018-11-21T02:01:23.596Z,11.73
2018-11-21T02:02:39.896Z,13.65
2018-11-21T02:03:55.860Z,12.75
2018-11-21T02:05:11.464Z,14.60
2018-11-21T02:06:27.685Z,15.63
2018-11-21T02:07:44.082Z,16.57
2018-11-21T02:09:00.436Z,15.48
2018-11-21T02:10:17.083Z,13.45
2018-11-21T02:11:33.254Z,12.90
2018-11-21T02:12:49.424Z,9.23
2018-11-21T02:14:05.541Z,8.83
2018-11-21T02:15:21.415Z,8.38
2018-11-21T02:16:37.719Z,12.75
2018-11-21T02:17:53.951Z,12.80
2018-11-21T02:19:10.177Z,14.25
2018-11-21T02:20:25.686Z,14.58
2018-11-21T02:21:41.526Z,13.90
2018-11-21T02:22:58.111Z,16.07
2018-11-21T02:24:14.200Z,18.90
2018-11-21T02:25:30.408Z,13.05
2018-11-21T02:26:46.274Z,12.35
2018-11-21T02:28:02.503Z,13.62
2018-11-21T02:29:18.884Z,11.80
2018-11-21T02:30:35.052Z,11.00
2018-11-21T02:31:51.396Z,17.02
2018-11-21T02:33:07.708Z,18.17
2018-11-21T02:34:23.834Z,18.20
2018-11-21T02:35:39.287Z,17.40
2018-11-21T02:36:55.929Z,14.78
2018-11-21T02:38:12.042Z,15.63
2018-11-21T02:39:28.344Z,16.17
2018-11-21T02:40:44.453Z,16.20
2018-11-21T02:42:00.968Z,17.32
2018-11-21T02:43:17.233Z,20.32
2018-11-21T02:44:33.021Z,18.15
2018-11-21T02:45:49.121Z,15.72
2018-11-21T02:47:05.294Z,12.05
2018-11-21T02:48:21.712Z,11.28
2018-11-21T02:49:37.989Z,9.25
2018-11-21T02:50:54.068Z,8.58
2018-11-21T02:52:10.270Z,8.30
2018-11-21T02:53:26.339Z,13.08
2018-11-21T02:54:41.729Z,14.00
2018-11-21T02:55:57.790Z,14.10
2018-11-21T02:57:13.373Z,13.83
2018-11-21T02:58:29.660Z,14.78
2018-11-21T02:59:45.432Z,16.05
2018-11-21T03:01:01.609Z,14.63
2018-11-21T03:02:17.752Z,13.00
2018-11-21T03:03:34.109Z,16.48
2018-11-21T03:04:49.932Z,16.75
2018-11-21T03:06:05.356Z,16.35
2018-11-21T03:07:09.252Z,10.20
2018-11-21T03:08:32.359Z,9.58
2018-11-21T03:09:47.871Z,12.03
2018-11-21T03:11:04.122Z,12.78
2018-11-21T03:12:20.131Z,11.12
2018-11-21T03:13:36.444Z,10.63
2018-11-21T03:14:52.914Z,10.43
2018-11-21T03:16:08.933Z,10.28
2018-11-21T03:17:25.372Z,9.00
2018-11-21T03:18:41.394Z,9.48
2018-11-21T03:19:57.593Z,11.48
2018-11-21T03:21:13.592Z,10.35
2018-11-21T03:22:29.881Z,14.35
2018-11-21T03:23:46.175Z,14.47
2018-11-21T03:25:02.170Z,12.68
2018-11-21T03:26:18.363Z,12.15
2018-11-21T03:27:34.521Z,13.98
2018-11-21T03:28:50.573Z,11.70
2018-11-21T03:30:06.664Z,11.63
2018-11-21T03:31:22.583Z,11.80
2018-11-21T03:32:38.612Z,15.00
2018-11-21T03:33:42.424Z,12.98
2018-11-21T03:35:05.586Z,13.95
2018-11-21T03:36:28.655Z,13.72
2018-11-21T03:37:44.344Z,12.65
2018-11-21T03:39:00.725Z,12.82
2018-11-21T03:40:16.742Z,13.40
2018-11-21T03:41:33.087Z,13.83
2018-11-21T03:42:36.842Z,15.25
2018-11-21T03:44:00.082Z,14.90
2018-11-21T03:45:15.885Z,13.55
2018-11-21T03:46:32.011Z,13.53
2018-11-21T03:47:47.495Z,15.70
2018-11-21T03:49:03.411Z,14.07
2018-11-21T03:50:19.448Z,12.53
2018-11-21T03:51:35.353Z,11.33
2018-11-21T03:52:51.666Z,11.10
2018-11-21T03:54:07.751Z,10.40
2018-11-21T03:55:24.067Z,10.85
2018-11-21T03:56:40.594Z,11.43
2018-11-21T03:57:56.768Z,13.85
2018-11-21T03:59:12.994Z,8.50
2018-11-21T04:00:29.122Z,8.13
2018-11-21T04:01:45.466Z,11.00
2018-11-21T04:03:01.975Z,10.78
2018-11-21T04:04:17.683Z,12.30
2018-11-21T04:05:34.028Z,12.55
2018-11-21T04:06:49.593Z,11.10
2018-11-21T04:08:05.751Z,9.55
2018-11-21T04:09:21.333Z,9.40
2018-11-21T04:10:37.227Z,9.15
2018-11-21T04:11:52.857Z,11.33
2018-11-21T04:13:09.029Z,11.57
2018-11-21T04:14:25.371Z,8.73
2018-11-21T04:15:41.555Z,6.80
2018-11-21T04:16:57.157Z,6.25
2018-11-21T04:18:13.541Z,6.53
2018-11-21T04:19:29.072Z,6.35
2018-11-21T04:20:45.480Z,5.75
2018-11-21T04:22:01.786Z,5.50
2018-11-21T04:23:18.091Z,5.30
2018-11-21T04:24:34.316Z,4.97
2018-11-21T04:25:50.491Z,5.53
2018-11-21T04:27:06.327Z,5.03
2018-11-21T04:28:22.456Z,5.33
2018-11-21T04:29:38.726Z,5.05
2018-11-21T04:30:54.758Z,4.90
2018-11-21T04:32:11.039Z,5.25
2018-11-21T04:33:27.181Z,5.55
2018-11-21T04:34:43.389Z,5.10
2018-11-21T04:35:59.730Z,4.85
2018-11-21T04:37:15.730Z,4.87
2018-11-21T04:38:31.374Z,4.65
2018-11-21T04:39:47.730Z,4.55
2018-11-21T04:41:03.263Z,5.08
2018-11-21T04:42:19.279Z,4.87
2018-11-21T04:43:35.424Z,5.00
2018-11-21T04:44:51.330Z,5.28
2018-11-21T04:45:55.135Z,6.28
2018-11-21T04:47:18.208Z,5.72
2018-11-21T04:48:34.325Z,5.28
2018-11-21T04:49:50.464Z,4.70
2018-11-21T04:51:06.825Z,5.37
2018-11-21T04:52:23.014Z,5.03
2018-11-21T04:53:39.279Z,5.05
2018-11-21T04:54:55.359Z,5.17
2018-11-21T04:56:11.482Z,5.17
2018-11-21T04:57:27.404Z,5.22
2018-11-21T04:58:43.863Z,5.03
2018-11-21T05:00:00.613Z,4.65
2018-11-21T05:01:16.888Z,4.90
2018-11-21T05:02:33.047Z,4.65
2018-11-21T05:03:48.907Z,4.90
2018-11-21T05:05:05.624Z,5.15
2018-11-21T05:06:21.596Z,4.85
2018-11-21T05:07:38.266Z,5.00
2018-11-21T05:08:42.107Z,5.12
2018-11-21T05:10:05.524Z,5.33
2018-11-21T05:11:28.624Z,6.28
2018-11-21T05:12:44.231Z,6.28
2018-11-21T05:14:00.022Z,5.65
2018-11-21T05:15:03.874Z,4.97
2018-11-21T05:16:26.995Z,5.30
2018-11-21T05:17:43.200Z,5.67
2018-11-21T05:18:59.049Z,5.65
2018-11-21T05:20:02.873Z,5.83
2018-11-21T05:21:25.957Z,5.28
2018-11-21T05:22:41.936Z,5.62
2018-11-21T05:23:58.226Z,5.08
2018-11-21T05:25:14.854Z,5.00
2018-11-21T05:26:31.051Z,5.17
2018-11-21T05:27:46.624Z,6.20
2018-11-21T05:29:02.877Z,5.45
2018-11-21T05:30:19.025Z,6.55
2018-11-21T05:31:34.896Z,6.25
2018-11-21T05:32:38.796Z,5.67
2018-11-21T05:34:01.895Z,5.92
2018-11-21T05:35:18.242Z,5.42
2018-11-21T05:36:34.499Z,5.65
2018-11-21T05:37:51.083Z,5.17
2018-11-21T05:39:06.961Z,5.35
2018-11-21T05:40:11.372Z,5.58
2018-11-21T05:41:34.486Z,5.92
2018-11-21T05:42:50.291Z,5.83
2018-11-21T05:44:06.796Z,5.67
2018-11-21T05:45:23.076Z,5.80
2018-11-21T05:46:39.391Z,5.53
2018-11-21T05:47:56.489Z,5.67
2018-11-21T05:49:12.251Z,6.33
2018-11-21T05:50:28.140Z,5.20
2018-11-21T05:51:43.889Z,5.85
2018-11-21T05:53:00.166Z,5.50
2018-11-21T05:55:23.565Z,4.62
2018-11-21T05:56:47.611Z,5.03
2018-11-21T05:58:03.360Z,5.65
2018-11-21T05:59:19.645Z,6.00
2018-11-21T06:00:35.471Z,6.28
2018-11-21T06:01:51.784Z,6.25
2018-11-21T06:03:06.647Z,6.12
2018-11-21T06:04:22.836Z,6.10
2018-11-21T06:05:39.037Z,6.28
2018-11-21T06:06:55.123Z,6.42
2018-11-21T06:08:11.201Z,6.00
2018-11-21T06:09:27.637Z,6.30
2018-11-21T06:10:43.761Z,6.83
2018-11-21T06:12:04.261Z,6.25
2018-11-21T06:13:15.643Z,5.92
2018-11-21T06:14:19.507Z,6.00
2018-11-21T06:15:42.543Z,5.95
2018-11-21T06:16:58.608Z,5.83
2018-11-21T06:18:14.754Z,5.72
2018-11-21T06:19:31.080Z,6.53
2018-11-21T06:20:47.016Z,7.03
2018-11-21T06:22:01.672Z,6.70
2018-11-21T06:23:17.349Z,6.28
2018-11-21T06:24:33.767Z,5.75
2018-11-21T06:25:49.674Z,6.55
2018-11-21T06:27:05.209Z,7.00
2018-11-21T06:28:21.206Z,5.92
2018-11-21T06:29:37.669Z,6.67
2018-11-21T06:30:53.864Z,5.55
2018-11-21T06:32:09.949Z,6.20
2018-11-21T06:33:26.225Z,7.03
2018-11-21T06:34:45.344Z,7.12
2018-11-21T06:37:31.628Z,6.37
2018-11-21T06:38:49.565Z,5.47
2018-11-21T06:41:27.709Z,5.90
2018-11-21T06:43:08.669Z,5.37
2018-11-21T06:44:20.114Z,7.83
2018-11-21T06:46:58.133Z,6.40
2018-11-21T06:48:14.219Z,6.10
2018-11-21T06:49:29.907Z,7.55
2018-11-21T06:50:48.235Z,7.67
2018-11-21T06:52:06.875Z,6.25
2018-11-21T06:53:22.639Z,6.17
2018-11-21T06:54:38.806Z,6.03
2018-11-21T06:57:17.668Z,6.22
2018-11-21T06:58:33.862Z,6.70
2018-11-21T06:59:50.021Z,6.28
2018-11-21T07:01:06.393Z,5.83
2018-11-21T07:02:22.478Z,6.60
2018-11-21T07:03:41.907Z,8.95
2018-11-21T07:06:17.746Z,6.72
2018-11-21T07:07:35.753Z,6.55
2018-11-21T07:08:52.972Z,7.45
2018-11-21T07:10:08.105Z,7.47
2018-11-21T07:11:25.091Z,6.97
2018-11-21T07:12:42.073Z,5.65
2018-11-21T07:13:58.636Z,6.95
2018-11-21T07:15:14.204Z,6.35
2018-11-21T07:16:30.044Z,7.03
2018-11-21T07:17:46.325Z,6.78
2018-11-21T07:19:01.895Z,6.92
2018-11-21T07:20:18.020Z,7.83
2018-11-21T07:21:34.362Z,6.90
2018-11-21T07:22:52.857Z,5.80
2018-11-21T07:23:56.806Z,8.13
2018-11-21T07:25:21.009Z,6.05
2018-11-21T07:26:39.459Z,6.22
2018-11-21T07:27:55.291Z,6.85
2018-11-21T07:29:12.782Z,8.35
2018-11-21T07:30:28.793Z,7.92
2018-11-21T07:31:44.979Z,6.40
2018-11-21T07:32:48.883Z,7.20
2018-11-21T07:34:12.090Z,6.92
2018-11-21T07:35:35.299Z,7.47
2018-11-21T07:36:58.483Z,15.70
2018-11-21T07:38:22.305Z,20.32
2018-11-21T07:39:45.459Z,14.23
2018-11-21T07:41:01.641Z,8.48
2018-11-21T07:42:19.463Z,9.15
2018-11-21T07:43:33.694Z,9.23
2018-11-21T07:44:50.139Z,16.65
2018-11-21T07:46:06.376Z,8.20
2018-11-21T07:47:10.259Z,14.80
2018-11-21T07:48:33.363Z,8.25
2018-11-21T07:49:56.511Z,8.18
2018-11-21T07:51:12.627Z,8.43
2018-11-21T07:52:28.671Z,12.13
2018-11-21T07:53:45.006Z,10.48
2018-11-21T07:55:02.585Z,7.87
2018-11-21T07:56:21.047Z,7.70
2018-11-21T07:57:41.833Z,8.03
2018-11-21T07:58:57.739Z,13.65
2018-11-21T08:00:13.959Z,6.35
2018-11-21T08:02:52.696Z,9.48
2018-11-21T08:04:27.692Z,8.10
2018-11-21T08:05:52.417Z,8.53
2018-11-21T08:09:04.890Z,23.25
2018-11-21T08:10:23.835Z,9.40
2018-11-21T08:13:21.709Z,10.28
2018-11-21T08:16:47.863Z,10.68
2018-11-21T08:18:24.910Z,11.55
2018-11-21T08:20:03.548Z,16.17
2018-11-21T08:21:41.165Z,12.40
2018-11-21T08:24:17.922Z,14.43
2018-11-21T08:25:36.928Z,6.50
2018-11-21T08:26:55.752Z,8.48
2018-11-21T08:28:30.706Z,18.10
2018-11-21T08:29:46.565Z,15.53
2018-11-21T08:31:06.707Z,13.38
2018-11-21T08:32:26.400Z,10.65
2018-11-21T08:33:45.223Z,7.40
2018-11-21T08:35:02.291Z,9.33
2018-11-21T08:36:20.952Z,7.50
2018-11-21T08:37:36.730Z,7.85
2018-11-21T08:38:52.814Z,12.53
2018-11-21T08:40:09.113Z,13.25
2018-11-21T08:41:25.026Z,25.77
2018-11-21T08:42:41.261Z,12.37
2018-11-21T08:45:13.488Z,10.40
2018-11-21T08:47:50.716Z,7.35
2018-11-21T08:49:05.522Z,7.80
2018-11-21T08:50:21.656Z,13.50
2018-11-21T08:51:37.632Z,8.13
2018-11-21T08:52:58.047Z,10.40
2018-11-21T08:55:24.347Z,9.68
2018-11-21T08:56:47.487Z,10.80
2018-11-21T08:58:10.676Z,10.40
2018-11-21T08:59:28.778Z,12.37
2018-11-21T09:00:42.474Z,10.15
2018-11-21T09:01:58.992Z,8.08
2018-11-21T09:03:15.309Z,6.80
2018-11-21T09:04:33.721Z,9.05
2018-11-21T09:05:50.160Z,9.95
2018-11-21T09:07:05.776Z,10.38
2018-11-21T09:08:25.249Z,10.75
2018-11-21T09:09:45.132Z,11.15
2018-11-21T09:12:23.007Z,7.03
2018-11-21T09:13:41.614Z,13.90
2018-11-21T09:14:57.285Z,13.13
2018-11-21T09:17:35.160Z,12.10
2018-11-21T09:18:53.543Z,11.88
2018-11-21T09:20:10.894Z,8.00
2018-11-21T09:21:25.469Z,8.05
2018-11-21T09:22:45.466Z,7.33
2018-11-21T09:24:04.808Z,6.67
2018-11-21T09:25:25.071Z,9.50
2018-11-21T09:26:44.312Z,12.73
2018-11-21T09:29:21.778Z,9.45
2018-11-21T09:30:37.909Z,8.10
2018-11-21T09:31:57.207Z,11.28
2018-11-21T09:34:36.356Z,8.45
2018-11-21T09:37:14.287Z,8.00
2018-11-21T09:38:30.145Z,6.72
2018-11-21T09:39:46.119Z,6.58
2018-11-21T09:42:24.652Z,6.80
2018-11-21T09:43:42.645Z,7.08
2018-11-21T09:44:58.953Z,6.17
2018-11-21T09:46:17.286Z,7.42
2018-11-21T09:47:31.845Z,7.62
2018-11-21T09:48:44.047Z,8.25
2018-11-21T09:50:08.735Z,6.75
2018-11-21T09:51:24.854Z,11.03
2018-11-21T09:54:02.882Z,7.22
2018-11-21T09:55:21.732Z,6.60
2018-11-21T09:56:37.828Z,8.90
2018-11-21T10:00:36.407Z,7.08
2018-11-21T10:01:56.447Z,7.10
2018-11-21T10:04:33.558Z,6.72
2018-11-21T10:05:49.381Z,8.10
2018-11-21T10:07:05.330Z,8.53
2018-11-21T10:08:24.429Z,7.15
2018-11-21T10:10:59.913Z,7.35
2018-11-21T10:12:03.861Z,6.33
2018-11-21T10:13:26.966Z,5.92
2018-11-21T10:14:30.862Z,5.30
2018-11-21T10:15:54.066Z,5.28
2018-11-21T10:16:58.041Z,7.37
2018-11-21T10:18:21.201Z,9.65
2018-11-21T10:19:43.915Z,7.15
2018-11-21T10:21:00.681Z,7.10
2018-11-21T10:22:16.564Z,10.10
2018-11-21T10:23:32.467Z,9.28
2018-11-21T10:24:48.530Z,10.32
2018-11-21T10:26:04.830Z,8.70
2018-11-21T10:27:21.026Z,6.83
2018-11-21T10:28:37.362Z,5.17
2018-11-21T10:31:00.589Z,6.45
2018-11-21T10:32:23.667Z,6.20
2018-11-21T10:33:43.178Z,6.90
2018-11-21T10:35:02.257Z,6.05
2018-11-21T10:38:02.945Z,6.78
2018-11-21T10:39:19.340Z,8.15
2018-11-21T10:40:35.741Z,7.67
2018-11-21T10:41:54.534Z,7.33
2018-11-21T10:43:14.848Z,7.97
2018-11-21T10:45:53.194Z,7.75
2018-11-21T10:47:09.096Z,7.83
2018-11-21T10:48:24.976Z,8.28
2018-11-21T10:49:40.849Z,9.33
2018-11-21T10:50:56.781Z,6.80
2018-11-21T10:52:13.226Z,7.80
2018-11-21T10:53:29.620Z,7.37
2018-11-21T10:54:45.729Z,8.40
2018-11-21T10:56:01.728Z,7.45
2018-11-21T10:57:17.452Z,9.28
2018-11-21T10:58:33.296Z,9.18
2018-11-21T10:59:49.243Z,7.03
2018-11-21T11:03:05.049Z,8.50
2018-11-21T11:04:46.485Z,7.35
2018-11-21T11:06:21.530Z,11.35
2018-11-21T11:07:57.734Z,8.78
2018-11-21T11:09:34.869Z,5.42
2018-11-21T11:11:09.790Z,6.80
2018-11-21T11:14:23.870Z,10.35
2018-11-21T11:15:55.482Z,8.43
2018-11-21T11:17:30.975Z,9.05
2018-11-21T11:20:40.303Z,6.05
2018-11-21T11:22:15.088Z,6.92
2018-11-21T11:23:53.267Z,7.92
2018-11-21T11:25:29.640Z,8.43
2018-11-21T11:28:46.367Z,6.45
2018-11-21T11:32:02.879Z,8.58
2018-11-21T11:35:18.441Z,8.30
2018-11-21T11:38:35.133Z,7.12
2018-11-21T11:41:49.905Z,7.42
2018-11-21T11:43:16.197Z,6.17
2018-11-21T11:44:51.054Z,6.95
2018-11-21T11:46:27.242Z,8.80
2018-11-21T11:49:42.156Z,7.47
2018-11-21T11:51:22.619Z,6.72
2018-11-21T11:52:57.169Z,7.92
2018-11-21T11:54:19.983Z,6.83
2018-11-21T11:56:02.096Z,7.65
2018-11-21T11:59:16.015Z,8.20
2018-11-21T12:00:57.489Z,8.13
2018-11-21T12:02:33.321Z,8.38
2018-11-21T12:05:47.490Z,6.97
2018-11-21T12:07:23.781Z,7.33
2018-11-21T12:08:53.201Z,8.08
2018-11-21T12:10:28.699Z,7.45
2018-11-21T12:13:43.954Z,10.15
2018-11-21T12:15:19.355Z,8.10
2018-11-21T12:16:54.733Z,8.15
2018-11-21T12:19:52.092Z,8.00
2018-11-21T12:23:09.282Z,9.30
2018-11-21T12:24:47.817Z,7.72
2018-11-21T12:26:14.643Z,9.15
2018-11-21T12:29:28.098Z,7.28
2018-11-21T12:31:02.026Z,6.28
2018-11-21T12:34:21.115Z,7.92
2018-11-21T12:37:46.784Z,8.10
2018-11-21T12:41:01.681Z,7.03
2018-11-21T12:42:32.423Z,6.60
2018-11-21T12:44:01.170Z,7.70
2018-11-21T12:45:31.925Z,7.53
2018-11-21T12:47:10.130Z,7.17
2018-11-21T12:50:18.978Z,8.28
2018-11-21T12:51:54.143Z,7.92
2018-11-21T12:54:54.862Z,7.08
2018-11-21T12:56:32.704Z,7.87
2018-11-21T12:58:07.995Z,9.63
2018-11-21T13:01:16.826Z,6.97
2018-11-21T13:04:31.531Z,7.95
2018-11-21T13:06:06.447Z,6.85
2018-11-21T13:09:16.226Z,7.20
2018-11-21T13:12:13.847Z,7.10
2018-11-21T13:15:28.963Z,7.62
2018-11-21T13:16:59.638Z,8.35
2018-11-21T13:18:35.967Z,7.90
2018-11-21T13:21:50.015Z,7.72
2018-11-21T13:25:05.922Z,6.78
2018-11-21T13:28:25.954Z,8.65
2018-11-21T13:29:49.661Z,8.35
2018-11-21T13:31:24.270Z,8.25
2018-11-21T13:34:42.011Z,8.53
2018-11-21T13:36:20.048Z,8.35
2018-11-21T13:37:57.990Z,7.72
2018-11-21T13:39:34.123Z,7.97
2018-11-21T13:41:12.188Z,7.17
2018-11-21T13:42:48.592Z,7.62
2018-11-21T13:46:18.675Z,7.42
2018-11-21T13:47:56.556Z,7.25
2018-11-21T13:51:13.832Z,9.83
2018-11-21T13:54:35.191Z,8.83
2018-11-21T13:55:51.186Z,9.13
2018-11-21T13:57:06.662Z,7.42
2018-11-21T13:58:22.875Z,7.37
2018-11-21T13:59:39.161Z,8.65
2018-11-21T14:00:55.104Z,8.35
2018-11-21T14:02:11.221Z,9.05
2018-11-21T14:03:26.922Z,9.28
2018-11-21T14:04:43.224Z,7.95
2018-11-21T14:05:59.310Z,9.55
2018-11-21T14:07:15.228Z,8.33
2018-11-21T14:08:31.447Z,9.93
2018-11-21T14:09:47.616Z,9.80
2018-11-21T14:11:03.430Z,8.60
2018-11-21T14:12:19.581Z,10.58
2018-11-21T14:13:25.655Z,9.00
2018-11-21T14:14:29.416Z,8.03
2018-11-21T14:15:52.593Z,7.97
2018-11-21T14:17:08.800Z,7.97
2018-11-21T14:18:25.001Z,7.08
2018-11-21T14:19:40.894Z,7.87
2018-11-21T14:20:56.911Z,8.68
2018-11-21T14:22:13.114Z,7.72
2018-11-21T14:23:29.133Z,9.70
2018-11-21T14:24:45.479Z,9.05
2018-11-21T14:26:01.575Z,8.45
2018-11-21T14:27:17.749Z,8.75
2018-11-21T14:28:34.210Z,8.48
2018-11-21T14:29:50.577Z,7.55
2018-11-21T14:31:07.059Z,8.20
2018-11-21T14:32:23.399Z,7.97
2018-11-21T14:33:39.675Z,8.80
2018-11-21T14:34:55.910Z,9.83
2018-11-21T14:36:12.343Z,10.18
2018-11-21T14:37:28.613Z,9.33
2018-11-21T14:38:44.182Z,9.28
2018-11-21T14:40:00.549Z,8.18
2018-11-21T14:41:04.495Z,8.33
2018-11-21T14:42:27.550Z,7.90
2018-11-21T14:43:43.398Z,8.03
2018-11-21T14:44:59.703Z,8.23
2018-11-21T14:46:15.902Z,9.15
2018-11-21T14:47:32.342Z,11.18
2018-11-21T14:48:47.812Z,11.78
2018-11-21T14:50:04.074Z,14.00
2018-11-21T14:51:19.532Z,12.25
2018-11-21T14:52:35.318Z,12.68
2018-11-21T14:53:39.252Z,11.53
2018-11-21T14:54:43.105Z,10.50
2018-11-21T14:56:06.706Z,9.28
2018-11-21T14:57:22.443Z,8.93
2018-11-21T14:58:39.022Z,13.00
2018-11-21T14:59:55.203Z,13.08
2018-11-21T15:01:11.590Z,13.00
2018-11-21T15:02:27.955Z,14.28
2018-11-21T15:03:44.342Z,16.57
2018-11-21T15:05:00.120Z,14.13
2018-11-21T15:06:15.609Z,8.75
2018-11-21T15:07:31.781Z,9.88
2018-11-21T15:08:47.896Z,10.43
2018-11-21T15:10:04.299Z,12.20
2018-11-21T15:11:20.543Z,9.90
2018-11-21T15:12:37.209Z,8.30
2018-11-21T15:13:53.269Z,9.23
2018-11-21T15:15:08.812Z,14.45
2018-11-21T15:16:24.961Z,14.07
2018-11-21T15:17:41.456Z,14.70
2018-11-21T15:18:57.375Z,14.93
2018-11-21T15:20:21.091Z,22.20
2018-11-21T15:21:37.501Z,15.55
2018-11-21T15:22:53.914Z,13.18
2018-11-21T15:24:09.659Z,19.70
2018-11-21T15:25:25.984Z,25.52
2018-11-21T15:26:42.214Z,12.73
2018-11-21T15:27:46.199Z,11.00
2018-11-21T15:29:09.384Z,10.03
2018-11-21T15:30:32.900Z,9.03
2018-11-21T15:31:48.951Z,9.90
2018-11-21T15:33:04.421Z,9.53
2018-11-21T15:34:20.885Z,10.10
2018-11-21T15:35:24.972Z,13.05
2018-11-21T15:36:48.038Z,12.78
2018-11-21T15:38:03.884Z,9.80
2018-11-21T15:39:20.314Z,9.73
2018-11-21T15:40:36.783Z,8.30
2018-11-21T15:41:52.974Z,10.20
2018-11-21T15:43:09.025Z,13.00
2018-11-21T15:44:29.034Z,13.55
2018-11-21T15:45:45.159Z,11.12
2018-11-21T15:47:01.149Z,10.60
2018-11-21T15:48:18.207Z,16.40
2018-11-21T15:49:33.918Z,12.98
2018-11-21T15:50:49.534Z,24.47
2018-11-21T15:52:05.607Z,16.93
2018-11-21T15:53:22.013Z,12.78
2018-11-21T15:54:37.988Z,14.20
2018-11-21T15:55:53.978Z,13.10
2018-11-21T15:57:10.178Z,12.78
2018-11-21T15:58:25.684Z,17.05
2018-11-21T15:59:41.293Z,14.63
2018-11-21T16:00:57.550Z,13.03
2018-11-21T16:02:13.741Z,13.08
2018-11-21T16:03:30.337Z,13.75
2018-11-21T16:04:48.107Z,12.98
2018-11-21T16:06:02.618Z,13.88
2018-11-21T16:07:19.042Z,14.90
2018-11-21T16:08:35.578Z,22.42
2018-11-21T16:09:51.927Z,23.90
2018-11-21T16:11:08.175Z,26.82
2018-11-21T16:12:24.586Z,23.18
2018-11-21T16:13:40.818Z,32.33
2018-11-21T16:14:56.679Z,21.30
2018-11-21T16:16:12.615Z,19.67
2018-11-21T16:17:28.575Z,15.43
2018-11-21T16:18:45.067Z,22.07
2018-11-21T16:20:01.059Z,22.42
2018-11-21T16:21:17.259Z,17.62
2018-11-21T16:22:33.314Z,27.40
2018-11-21T16:23:49.657Z,27.15
2018-11-21T16:25:06.035Z,17.92
2018-11-21T16:26:22.292Z,24.30
2018-11-21T16:27:39.254Z,30.25
2018-11-21T16:28:55.340Z,38.10
2018-11-21T16:30:11.799Z,20.55
2018-11-21T16:31:28.125Z,22.35
2018-11-21T16:32:43.940Z,40.78
2018-11-21T16:34:00.097Z,16.77
2018-11-21T16:35:16.487Z,24.57
2018-11-21T16:36:32.759Z,22.20
2018-11-21T16:37:49.097Z,36.28
2018-11-21T16:39:05.497Z,18.07
2018-11-21T16:40:23.533Z,25.70
2018-11-21T16:41:39.666Z,13.05
2018-11-21T16:42:56.916Z,13.00
2018-11-21T16:44:13.209Z,13.15
2018-11-21T16:46:47.937Z,14.45
2018-11-21T16:48:03.474Z,15.93
2018-11-21T16:49:19.808Z,15.15
2018-11-21T16:50:36.141Z,23.02
2018-11-21T16:51:52.275Z,26.27
2018-11-21T16:53:07.872Z,52.70
2018-11-21T16:54:24.097Z,20.08
2018-11-21T16:55:40.284Z,29.75
2018-11-21T16:56:56.733Z,19.20
2018-11-21T16:58:12.572Z,41.40
2018-11-21T16:59:28.651Z,16.70
2018-11-21T17:00:45.004Z,20.95
2018-11-21T17:02:01.095Z,27.52
2018-11-21T17:03:05.119Z,34.00
2018-11-21T17:04:28.376Z,17.57
2018-11-21T17:05:44.788Z,21.55
2018-11-21T17:07:00.781Z,16.80
2018-11-21T17:08:17.314Z,15.18
2018-11-21T17:11:12.779Z,13.90
2018-11-21T17:12:29.003Z,19.42
2018-11-21T17:13:45.149Z,16.32
2018-11-21T17:15:01.267Z,16.82
2018-11-21T17:16:17.552Z,16.65
2018-11-21T17:17:33.910Z,13.32
2018-11-21T17:18:50.505Z,21.93
2018-11-21T17:20:06.417Z,15.45
2018-11-21T17:21:22.494Z,17.87
2018-11-21T17:22:38.823Z,18.62
2018-11-21T17:23:53.431Z,47.43
2018-11-21T17:24:57.359Z,40.58
2018-11-21T17:27:42.235Z,17.95
2018-11-21T17:28:58.218Z,20.95
2018-11-21T17:30:15.454Z,21.00
2018-11-21T17:31:31.259Z,20.10
2018-11-21T17:32:48.759Z,18.20
2018-11-21T17:34:04.697Z,30.30
2018-11-21T17:35:21.303Z,17.35
2018-11-21T17:36:37.085Z,17.05
2018-11-21T17:37:54.011Z,21.25
2018-11-21T17:39:09.888Z,19.30
2018-11-21T17:40:27.909Z,18.80
2018-11-21T17:41:44.224Z,15.75
2018-11-21T17:43:00.454Z,14.63
2018-11-21T17:44:16.698Z,28.85
2018-11-21T17:45:32.977Z,26.40
2018-11-21T17:46:49.299Z,28.12
2018-11-21T17:48:05.857Z,34.35
2018-11-21T17:49:21.850Z,24.98
2018-11-21T17:50:37.820Z,21.10
2018-11-21T17:51:54.107Z,21.23
2018-11-21T17:53:10.318Z,21.73
2018-11-21T17:54:25.896Z,18.80
2018-11-21T17:55:42.092Z,16.37
2018-11-21T17:56:58.070Z,15.23
2018-11-21T17:58:14.340Z,21.97
2018-11-21T17:59:30.456Z,16.15
2018-11-21T18:00:46.584Z,15.32
2018-11-21T18:02:02.576Z,21.07
2018-11-21T18:03:19.154Z,22.42
2018-11-21T18:04:35.357Z,36.20
2018-11-21T18:05:51.716Z,22.70
2018-11-21T18:07:07.782Z,34.75
2018-11-21T18:08:23.820Z,19.67
2018-11-21T18:09:40.130Z,19.25
2018-11-21T18:10:56.315Z,15.85
2018-11-21T18:12:12.332Z,16.10
2018-11-21T18:13:28.290Z,31.95
2018-11-21T18:14:44.330Z,14.47
2018-11-21T18:16:00.139Z,16.27
2018-11-21T18:17:16.418Z,11.97
2018-11-21T18:18:32.937Z,14.40
2018-11-21T18:19:49.198Z,15.23
2018-11-21T18:22:27.111Z,14.23
2018-11-21T18:23:42.779Z,17.57
2018-11-21T18:24:59.017Z,17.40
2018-11-21T18:26:15.313Z,15.68
2018-11-21T18:27:30.910Z,18.17
2018-11-21T18:28:47.223Z,14.75
2018-11-21T18:30:03.433Z,19.30
2018-11-21T18:31:19.828Z,15.15
2018-11-21T18:32:35.740Z,19.65
2018-11-21T18:33:52.295Z,15.65
2018-11-21T18:35:09.008Z,14.75
2018-11-21T18:36:24.632Z,14.33
2018-11-21T18:37:41.017Z,14.13
2018-11-21T18:39:00.384Z,15.55
